sensor_id;sensor_type;location;lat;lon;timestamp;P1;durP1;ratioP1;P2;durP2;ratioP2
63438;SDS011;49567;48.958;8.294;2022-07-10T00:00:27;1.70;;;1.60;;
63438;SDS011;49567;48.958;8.294;2022-07-10T00:02:54;2.03;;;1.70;;
63438;SDS011;49567;48.958;8.294;2022-07-10T00:05:21;2.20;;;1.70;;
63438;SDS011;49567;48.958;8.294;2022-07-10T00:07:47;1.70;;;1.63;;
63438;SDS011;49567;48.958;8.294;2022-07-10T00:10:14;2.72;;;2.03;;
63438;SDS011;49567;48.958;8.294;2022-07-10T00:12:40;1.90;;;1.80;;
63438;SDS011;49567;48.958;8.294;2022-07-10T00:15:05;2.10;;;2.00;;
63438;SDS011;49567;48.958;8.294;2022-07-10T00:17:31;1.80;;;1.70;;
63438;SDS011;49567;48.958;8.294;2022-07-10T00:19:57;1.92;;;1.80;;
63438;SDS011;49567;48.958;8.294;2022-07-10T00:22:23;2.00;;;1.90;;
63438;SDS011;49567;48.958;8.294;2022-07-10T00:24:48;2.53;;;2.20;;
63438;SDS011;49567;48.958;8.294;2022-07-10T00:27:15;2.00;;;1.90;;
63438;SDS011;49567;48.958;8.294;2022-07-10T00:29:41;2.20;;;2.10;;
63438;SDS011;49567;48.958;8.294;2022-07-10T00:32:07;5.93;;;2.10;;
63438;SDS011;49567;48.958;8.294;2022-07-10T00:34:32;2.30;;;2.10;;
63438;SDS011;49567;48.958;8.294;2022-07-10T00:36:58;2.63;;;1.80;;
63438;SDS011;49567;48.958;8.294;2022-07-10T00:39:23;3.50;;;2.03;;
63438;SDS011;49567;48.958;8.294;2022-07-10T00:41:49;2.33;;;2.13;;
63438;SDS011;49567;48.958;8.294;2022-07-10T00:44:14;3.63;;;2.37;;
63438;SDS011;49567;48.958;8.294;2022-07-10T00:46:39;2.60;;;2.50;;
63438;SDS011;49567;48.958;8.294;2022-07-10T00:49:05;2.77;;;2.57;;
63438;SDS011;49567;48.958;8.294;2022-07-10T00:51:31;2.20;;;2.10;;
63438;SDS011;49567;48.958;8.294;2022-07-10T00:53:58;2.60;;;2.50;;
63438;SDS011;49567;48.958;8.294;2022-07-10T00:56:24;2.53;;;2.33;;
63438;SDS011;49567;48.958;8.294;2022-07-10T00:58:51;2.20;;;2.03;;
63438;SDS011;49567;48.958;8.294;2022-07-10T01:01:17;2.30;;;2.20;;
63438;SDS011;49567;48.958;8.294;2022-07-10T01:03:43;2.20;;;2.10;;
63438;SDS011;49567;48.958;8.294;2022-07-10T01:06:10;2.95;;;2.05;;
63438;SDS011;49567;48.958;8.294;2022-07-10T01:08:36;2.20;;;2.00;;
63438;SDS011;49567;48.958;8.294;2022-07-10T01:11:02;1.93;;;1.87;;
63438;SDS011;49567;48.958;8.294;2022-07-10T01:13:27;2.50;;;1.80;;
63438;SDS011;49567;48.958;8.294;2022-07-10T01:15:53;2.00;;;1.90;;
63438;SDS011;49567;48.958;8.294;2022-07-10T01:18:19;2.13;;;2.03;;
63438;SDS011;49567;48.958;8.294;2022-07-10T01:20:45;1.70;;;1.60;;
63438;SDS011;49567;48.958;8.294;2022-07-10T01:23:10;1.88;;;1.50;;
63438;SDS011;49567;48.958;8.294;2022-07-10T01:25:35;1.67;;;1.57;;
63438;SDS011;49567;48.958;8.294;2022-07-10T01:28:01;1.33;;;1.33;;
63438;SDS011;49567;48.958;8.294;2022-07-10T01:30:27;2.05;;;1.85;;
63438;SDS011;49567;48.958;8.294;2022-07-10T01:32:52;1.63;;;1.53;;
63438;SDS011;49567;48.958;8.294;2022-07-10T01:35:17;2.93;;;1.33;;
63438;SDS011;49567;48.958;8.294;2022-07-10T01:37:43;1.55;;;1.45;;
63438;SDS011;49567;48.958;8.294;2022-07-10T01:40:10;1.60;;;1.60;;
63438;SDS011;49567;48.958;8.294;2022-07-10T01:42:36;3.22;;;1.30;;
63438;SDS011;49567;48.958;8.294;2022-07-10T01:45:03;2.90;;;1.52;;
63438;SDS011;49567;48.958;8.294;2022-07-10T01:47:34;1.90;;;1.05;;
63438;SDS011;49567;48.958;8.294;2022-07-10T01:50:00;2.08;;;1.17;;
63438;SDS011;49567;48.958;8.294;2022-07-10T01:52:26;1.80;;;1.10;;
63438;SDS011;49567;48.958;8.294;2022-07-10T01:54:52;4.27;;;1.10;;
63438;SDS011;49567;48.958;8.294;2022-07-10T01:57:18;2.50;;;1.27;;
63438;SDS011;49567;48.958;8.294;2022-07-10T01:59:43;3.07;;;1.40;;
63438;SDS011;49567;48.958;8.294;2022-07-10T02:02:09;2.55;;;1.40;;
63438;SDS011;49567;48.958;8.294;2022-07-10T02:04:35;3.83;;;1.30;;
63438;SDS011;49567;48.958;8.294;2022-07-10T02:07:07;1.45;;;0.90;;
63438;SDS011;49567;48.958;8.294;2022-07-10T02:09:36;2.10;;;1.10;;
63438;SDS011;49567;48.958;8.294;2022-07-10T02:12:02;1.47;;;1.30;;
63438;SDS011;49567;48.958;8.294;2022-07-10T02:14:28;2.13;;;1.05;;
63438;SDS011;49567;48.958;8.294;2022-07-10T02:16:54;3.72;;;1.40;;
63438;SDS011;49567;48.958;8.294;2022-07-10T02:19:20;2.08;;;1.35;;
63438;SDS011;49567;48.958;8.294;2022-07-10T02:21:47;3.55;;;1.17;;
63438;SDS011;49567;48.958;8.294;2022-07-10T02:24:13;2.43;;;1.13;;
63438;SDS011;49567;48.958;8.294;2022-07-10T02:26:38;1.58;;;1.02;;
63438;SDS011;49567;48.958;8.294;2022-07-10T02:29:03;3.97;;;1.47;;
63438;SDS011;49567;48.958;8.294;2022-07-10T02:31:29;2.00;;;1.03;;
63438;SDS011;49567;48.958;8.294;2022-07-10T02:33:54;2.67;;;1.03;;
63438;SDS011;49567;48.958;8.294;2022-07-10T02:36:20;1.40;;;1.00;;
63438;SDS011;49567;48.958;8.294;2022-07-10T02:38:45;2.57;;;1.30;;
63438;SDS011;49567;48.958;8.294;2022-07-10T02:41:12;0.80;;;0.80;;
63438;SDS011;49567;48.958;8.294;2022-07-10T02:43:38;2.58;;;0.80;;
63438;SDS011;49567;48.958;8.294;2022-07-10T02:46:03;1.07;;;0.97;;
63438;SDS011;49567;48.958;8.294;2022-07-10T02:48:30;2.75;;;1.10;;
63438;SDS011;49567;48.958;8.294;2022-07-10T02:50:55;8.37;;;1.73;;
63438;SDS011;49567;48.958;8.294;2022-07-10T02:53:21;1.55;;;1.05;;
63438;SDS011;49567;48.958;8.294;2022-07-10T02:55:46;1.67;;;1.00;;
63438;SDS011;49567;48.958;8.294;2022-07-10T02:58:11;1.37;;;0.90;;
63438;SDS011;49567;48.958;8.294;2022-07-10T03:00:40;1.27;;;1.00;;
63438;SDS011;49567;48.958;8.294;2022-07-10T03:03:07;2.30;;;0.90;;
63438;SDS011;49567;48.958;8.294;2022-07-10T03:05:32;1.98;;;1.15;;
63438;SDS011;49567;48.958;8.294;2022-07-10T03:07:59;2.93;;;1.20;;
63438;SDS011;49567;48.958;8.294;2022-07-10T03:10:24;1.67;;;1.02;;
63438;SDS011;49567;48.958;8.294;2022-07-10T03:12:50;3.40;;;1.05;;
63438;SDS011;49567;48.958;8.294;2022-07-10T03:15:15;2.90;;;1.13;;
63438;SDS011;49567;48.958;8.294;2022-07-10T03:17:42;2.28;;;0.95;;
63438;SDS011;49567;48.958;8.294;2022-07-10T03:20:08;0.83;;;0.83;;
63438;SDS011;49567;48.958;8.294;2022-07-10T03:22:35;2.72;;;1.10;;
63438;SDS011;49567;48.958;8.294;2022-07-10T03:25:02;4.10;;;1.45;;
63438;SDS011;49567;48.958;8.294;2022-07-10T03:27:28;5.25;;;1.02;;
63438;SDS011;49567;48.958;8.294;2022-07-10T03:29:53;2.40;;;0.90;;
63438;SDS011;49567;48.958;8.294;2022-07-10T03:32:18;0.93;;;0.83;;
63438;SDS011;49567;48.958;8.294;2022-07-10T03:34:44;1.83;;;1.02;;
63438;SDS011;49567;48.958;8.294;2022-07-10T03:37:10;4.33;;;0.87;;
63438;SDS011;49567;48.958;8.294;2022-07-10T03:39:35;3.17;;;1.10;;
63438;SDS011;49567;48.958;8.294;2022-07-10T03:42:01;1.73;;;1.00;;
63438;SDS011;49567;48.958;8.294;2022-07-10T03:44:27;3.03;;;0.90;;
63438;SDS011;49567;48.958;8.294;2022-07-10T03:46:53;2.28;;;1.00;;
63438;SDS011;49567;48.958;8.294;2022-07-10T03:49:19;1.30;;;0.95;;
63438;SDS011;49567;48.958;8.294;2022-07-10T03:51:45;4.88;;;0.93;;
63438;SDS011;49567;48.958;8.294;2022-07-10T03:54:11;2.90;;;0.80;;
63438;SDS011;49567;48.958;8.294;2022-07-10T03:56:37;5.10;;;1.35;;
63438;SDS011;49567;48.958;8.294;2022-07-10T03:59:21;1.90;;;0.80;;
63438;SDS011;49567;48.958;8.294;2022-07-10T04:01:47;3.30;;;1.10;;
63438;SDS011;49567;48.958;8.294;2022-07-10T04:04:12;1.27;;;0.93;;
63438;SDS011;49567;48.958;8.294;2022-07-10T04:06:38;2.37;;;0.90;;
63438;SDS011;49567;48.958;8.294;2022-07-10T04:09:04;3.17;;;1.00;;
63438;SDS011;49567;48.958;8.294;2022-07-10T04:11:32;2.42;;;0.95;;
63438;SDS011;49567;48.958;8.294;2022-07-10T04:13:59;1.95;;;0.90;;
63438;SDS011;49567;48.958;8.294;2022-07-10T04:16:26;2.13;;;1.03;;
63438;SDS011;49567;48.958;8.294;2022-07-10T04:18:51;4.72;;;1.00;;
63438;SDS011;49567;48.958;8.294;2022-07-10T04:21:19;2.10;;;1.02;;
63438;SDS011;49567;48.958;8.294;2022-07-10T04:23:45;1.33;;;0.70;;
63438;SDS011;49567;48.958;8.294;2022-07-10T04:26:13;1.92;;;0.80;;
63438;SDS011;49567;48.958;8.294;2022-07-10T04:28:40;3.03;;;1.00;;
63438;SDS011;49567;48.958;8.294;2022-07-10T04:31:06;2.30;;;1.30;;
63438;SDS011;49567;48.958;8.294;2022-07-10T04:33:35;2.00;;;0.70;;
63438;SDS011;49567;48.958;8.294;2022-07-10T04:36:01;2.40;;;0.77;;
63438;SDS011;49567;48.958;8.294;2022-07-10T04:38:27;5.50;;;1.03;;
63438;SDS011;49567;48.958;8.294;2022-07-10T04:40:53;2.17;;;0.88;;
63438;SDS011;49567;48.958;8.294;2022-07-10T04:43:22;2.42;;;0.80;;
63438;SDS011;49567;48.958;8.294;2022-07-10T04:45:49;1.20;;;0.90;;
63438;SDS011;49567;48.958;8.294;2022-07-10T04:48:16;3.10;;;1.10;;
63438;SDS011;49567;48.958;8.294;2022-07-10T04:50:43;3.63;;;1.10;;
63438;SDS011;49567;48.958;8.294;2022-07-10T04:53:08;2.60;;;0.80;;
63438;SDS011;49567;48.958;8.294;2022-07-10T04:55:34;4.07;;;0.90;;
63438;SDS011;49567;48.958;8.294;2022-07-10T04:58:02;4.00;;;1.23;;
63438;SDS011;49567;48.958;8.294;2022-07-10T05:00:27;2.22;;;0.90;;
63438;SDS011;49567;48.958;8.294;2022-07-10T05:02:57;1.58;;;0.85;;
63438;SDS011;49567;48.958;8.294;2022-07-10T05:05:24;2.42;;;0.75;;
63438;SDS011;49567;48.958;8.294;2022-07-10T05:07:50;2.03;;;1.20;;
63438;SDS011;49567;48.958;8.294;2022-07-10T05:10:17;5.90;;;1.05;;
63438;SDS011;49567;48.958;8.294;2022-07-10T05:12:43;2.35;;;0.73;;
63438;SDS011;49567;48.958;8.294;2022-07-10T05:15:08;1.23;;;0.90;;
63438;SDS011;49567;48.958;8.294;2022-07-10T05:17:34;3.60;;;1.05;;
63438;SDS011;49567;48.958;8.294;2022-07-10T05:20:03;3.13;;;0.90;;
63438;SDS011;49567;48.958;8.294;2022-07-10T05:22:32;3.13;;;0.93;;
63438;SDS011;49567;48.958;8.294;2022-07-10T05:24:59;3.47;;;1.10;;
63438;SDS011;49567;48.958;8.294;2022-07-10T05:27:26;2.08;;;0.90;;
63438;SDS011;49567;48.958;8.294;2022-07-10T05:29:56;2.23;;;0.87;;
63438;SDS011;49567;48.958;8.294;2022-07-10T05:32:22;2.83;;;0.90;;
63438;SDS011;49567;48.958;8.294;2022-07-10T05:34:50;2.10;;;0.98;;
63438;SDS011;49567;48.958;8.294;2022-07-10T05:37:18;3.17;;;1.02;;
63438;SDS011;49567;48.958;8.294;2022-07-10T05:39:45;2.67;;;0.90;;
63438;SDS011;49567;48.958;8.294;2022-07-10T05:42:13;2.10;;;0.98;;
63438;SDS011;49567;48.958;8.294;2022-07-10T05:44:39;3.40;;;1.40;;
63438;SDS011;49567;48.958;8.294;2022-07-10T05:47:05;5.30;;;0.98;;
63438;SDS011;49567;48.958;8.294;2022-07-10T05:49:31;2.67;;;1.15;;
63438;SDS011;49567;48.958;8.294;2022-07-10T05:51:57;3.63;;;1.20;;
63438;SDS011;49567;48.958;8.294;2022-07-10T05:54:25;1.77;;;0.98;;
63438;SDS011;49567;48.958;8.294;2022-07-10T05:56:51;3.15;;;0.93;;
63438;SDS011;49567;48.958;8.294;2022-07-10T05:59:16;2.53;;;0.93;;
63438;SDS011;49567;48.958;8.294;2022-07-10T06:01:41;5.27;;;1.10;;
63438;SDS011;49567;48.958;8.294;2022-07-10T06:04:06;3.53;;;1.10;;
63438;SDS011;49567;48.958;8.294;2022-07-10T06:06:32;5.35;;;1.20;;
63438;SDS011;49567;48.958;8.294;2022-07-10T06:08:57;3.77;;;0.80;;
63438;SDS011;49567;48.958;8.294;2022-07-10T06:11:24;3.83;;;1.08;;
63438;SDS011;49567;48.958;8.294;2022-07-10T06:13:50;3.20;;;0.90;;
63438;SDS011;49567;48.958;8.294;2022-07-10T06:16:17;2.25;;;0.90;;
63438;SDS011;49567;48.958;8.294;2022-07-10T06:18:45;4.20;;;0.95;;
63438;SDS011;49567;48.958;8.294;2022-07-10T06:21:13;4.00;;;1.03;;
63438;SDS011;49567;48.958;8.294;2022-07-10T06:23:38;3.15;;;0.90;;
63438;SDS011;49567;48.958;8.294;2022-07-10T06:26:03;3.37;;;0.90;;
63438;SDS011;49567;48.958;8.294;2022-07-10T06:28:29;1.33;;;1.00;;
63438;SDS011;49567;48.958;8.294;2022-07-10T06:30:54;3.23;;;0.93;;
63438;SDS011;49567;48.958;8.294;2022-07-10T06:33:19;2.90;;;0.60;;
63438;SDS011;49567;48.958;8.294;2022-07-10T06:35:44;4.63;;;1.15;;
63438;SDS011;49567;48.958;8.294;2022-07-10T06:38:10;6.93;;;1.23;;
63438;SDS011;49567;48.958;8.294;2022-07-10T06:40:35;1.80;;;0.90;;
63438;SDS011;49567;48.958;8.294;2022-07-10T06:43:03;1.57;;;0.80;;
63438;SDS011;49567;48.958;8.294;2022-07-10T06:45:28;5.82;;;1.13;;
63438;SDS011;49567;48.958;8.294;2022-07-10T06:47:54;3.53;;;1.00;;
63438;SDS011;49567;48.958;8.294;2022-07-10T06:50:26;1.52;;;0.90;;
63438;SDS011;49567;48.958;8.294;2022-07-10T06:52:55;3.85;;;0.88;;
63438;SDS011;49567;48.958;8.294;2022-07-10T06:55:21;4.53;;;1.10;;
63438;SDS011;49567;48.958;8.294;2022-07-10T06:57:48;3.23;;;1.27;;
63438;SDS011;49567;48.958;8.294;2022-07-10T07:00:14;3.65;;;0.85;;
63438;SDS011;49567;48.958;8.294;2022-07-10T07:02:40;2.28;;;1.13;;
63438;SDS011;49567;48.958;8.294;2022-07-10T07:05:06;3.17;;;0.90;;
63438;SDS011;49567;48.958;8.294;2022-07-10T07:07:32;2.35;;;0.80;;
63438;SDS011;49567;48.958;8.294;2022-07-10T07:09:59;2.53;;;1.00;;
63438;SDS011;49567;48.958;8.294;2022-07-10T07:12:25;3.00;;;1.10;;
63438;SDS011;49567;48.958;8.294;2022-07-10T07:14:51;3.30;;;0.90;;
63438;SDS011;49567;48.958;8.294;2022-07-10T07:17:16;1.43;;;0.80;;
63438;SDS011;49567;48.958;8.294;2022-07-10T07:19:49;2.92;;;0.85;;
63438;SDS011;49567;48.958;8.294;2022-07-10T07:22:35;3.08;;;0.90;;
63438;SDS011;49567;48.958;8.294;2022-07-10T07:25:20;4.33;;;1.10;;
63438;SDS011;49567;48.958;8.294;2022-07-10T07:27:45;1.65;;;0.60;;
63438;SDS011;49567;48.958;8.294;2022-07-10T07:30:12;1.73;;;0.60;;
63438;SDS011;49567;48.958;8.294;2022-07-10T07:32:42;1.10;;;0.43;;
63438;SDS011;49567;48.958;8.294;2022-07-10T07:35:08;2.67;;;0.70;;
63438;SDS011;49567;48.958;8.294;2022-07-10T07:37:38;1.63;;;0.55;;
63438;SDS011;49567;48.958;8.294;2022-07-10T07:40:09;2.22;;;1.35;;
63438;SDS011;49567;48.958;8.294;2022-07-10T07:42:36;2.63;;;0.57;;
63438;SDS011;49567;48.958;8.294;2022-07-10T07:45:02;1.10;;;0.45;;
63438;SDS011;49567;48.958;8.294;2022-07-10T07:47:29;1.83;;;0.65;;
63438;SDS011;49567;48.958;8.294;2022-07-10T07:49:54;3.03;;;0.70;;
63438;SDS011;49567;48.958;8.294;2022-07-10T07:52:20;1.60;;;0.50;;
63438;SDS011;49567;48.958;8.294;2022-07-10T07:54:45;3.63;;;0.70;;
63438;SDS011;49567;48.958;8.294;2022-07-10T07:57:10;2.63;;;0.67;;
63438;SDS011;49567;48.958;8.294;2022-07-10T07:59:36;2.05;;;0.50;;
63438;SDS011;49567;48.958;8.294;2022-07-10T08:02:01;3.77;;;0.90;;
63438;SDS011;49567;48.958;8.294;2022-07-10T08:04:26;2.53;;;0.67;;
63438;SDS011;49567;48.958;8.294;2022-07-10T08:06:51;2.83;;;0.70;;
63438;SDS011;49567;48.958;8.294;2022-07-10T08:09:18;3.60;;;0.73;;
63438;SDS011;49567;48.958;8.294;2022-07-10T08:11:44;1.55;;;0.70;;
63438;SDS011;49567;48.958;8.294;2022-07-10T08:14:09;2.83;;;1.00;;
63438;SDS011;49567;48.958;8.294;2022-07-10T08:16:35;1.63;;;0.70;;
63438;SDS011;49567;48.958;8.294;2022-07-10T08:19:00;1.53;;;0.80;;
63438;SDS011;49567;48.958;8.294;2022-07-10T08:21:25;1.40;;;0.57;;
63438;SDS011;49567;48.958;8.294;2022-07-10T08:23:51;2.88;;;0.52;;
63438;SDS011;49567;48.958;8.294;2022-07-10T08:26:18;1.15;;;0.50;;
63438;SDS011;49567;48.958;8.294;2022-07-10T08:28:43;2.33;;;0.90;;
63438;SDS011;49567;48.958;8.294;2022-07-10T08:31:08;2.83;;;0.60;;
63438;SDS011;49567;48.958;8.294;2022-07-10T08:33:33;1.70;;;0.50;;
63438;SDS011;49567;48.958;8.294;2022-07-10T08:35:59;0.93;;;0.60;;
63438;SDS011;49567;48.958;8.294;2022-07-10T08:38:25;1.30;;;0.52;;
63438;SDS011;49567;48.958;8.294;2022-07-10T08:40:51;1.10;;;0.67;;
63438;SDS011;49567;48.958;8.294;2022-07-10T08:43:22;1.67;;;0.60;;
63438;SDS011;49567;48.958;8.294;2022-07-10T08:45:47;0.57;;;0.50;;
63438;SDS011;49567;48.958;8.294;2022-07-10T08:48:14;2.47;;;0.57;;
63438;SDS011;49567;48.958;8.294;2022-07-10T08:50:44;1.90;;;0.90;;
63438;SDS011;49567;48.958;8.294;2022-07-10T08:53:12;2.17;;;0.60;;
63438;SDS011;49567;48.958;8.294;2022-07-10T08:55:41;1.80;;;0.60;;
63438;SDS011;49567;48.958;8.294;2022-07-10T08:58:08;1.13;;;0.40;;
63438;SDS011;49567;48.958;8.294;2022-07-10T09:00:33;1.35;;;0.68;;
63438;SDS011;49567;48.958;8.294;2022-07-10T09:02:59;2.43;;;0.90;;
63438;SDS011;49567;48.958;8.294;2022-07-10T09:05:24;2.33;;;0.70;;
63438;SDS011;49567;48.958;8.294;2022-07-10T09:07:51;2.88;;;0.55;;
63438;SDS011;49567;48.958;8.294;2022-07-10T09:10:18;1.50;;;0.70;;
63438;SDS011;49567;48.958;8.294;2022-07-10T09:12:52;1.02;;;0.30;;
63438;SDS011;49567;48.958;8.294;2022-07-10T09:15:20;1.15;;;0.30;;
63438;SDS011;49567;48.958;8.294;2022-07-10T09:17:51;1.10;;;0.40;;
63438;SDS011;49567;48.958;8.294;2022-07-10T09:20:31;1.30;;;0.50;;
63438;SDS011;49567;48.958;8.294;2022-07-10T09:22:58;1.02;;;0.50;;
63438;SDS011;49567;48.958;8.294;2022-07-10T09:25:33;1.67;;;0.50;;
63438;SDS011;49567;48.958;8.294;2022-07-10T09:27:59;3.20;;;0.50;;
63438;SDS011;49567;48.958;8.294;2022-07-10T09:30:33;3.45;;;0.47;;
63438;SDS011;49567;48.958;8.294;2022-07-10T09:33:16;2.75;;;0.47;;
63438;SDS011;49567;48.958;8.294;2022-07-10T09:35:54;3.78;;;0.50;;
63438;SDS011;49567;48.958;8.294;2022-07-10T09:41:17;1.60;;;0.57;;
63438;SDS011;49567;48.958;8.294;2022-07-10T09:43:52;1.10;;;0.52;;
63438;SDS011;49567;48.958;8.294;2022-07-10T09:46:21;0.52;;;0.38;;
63438;SDS011;49567;48.958;8.294;2022-07-10T09:48:48;0.90;;;0.40;;
63438;SDS011;49567;48.958;8.294;2022-07-10T09:51:32;1.30;;;0.60;;
63438;SDS011;49567;48.958;8.294;2022-07-10T09:54:02;1.40;;;0.50;;
63438;SDS011;49567;48.958;8.294;2022-07-10T09:56:33;1.02;;;0.52;;
63438;SDS011;49567;48.958;8.294;2022-07-10T09:59:07;0.85;;;0.38;;
63438;SDS011;49567;48.958;8.294;2022-07-10T10:01:35;1.50;;;0.40;;
63438;SDS011;49567;48.958;8.294;2022-07-10T10:04:02;1.48;;;0.40;;
63438;SDS011;49567;48.958;8.294;2022-07-10T10:06:29;1.53;;;0.33;;
63438;SDS011;49567;48.958;8.294;2022-07-10T10:08:57;2.30;;;0.52;;
63438;SDS011;49567;48.958;8.294;2022-07-10T10:11:31;3.65;;;0.50;;
63438;SDS011;49567;48.958;8.294;2022-07-10T10:13:58;2.15;;;0.40;;
63438;SDS011;49567;48.958;8.294;2022-07-10T10:16:25;2.25;;;0.65;;
63438;SDS011;49567;48.958;8.294;2022-07-10T10:18:52;1.30;;;0.43;;
63438;SDS011;49567;48.958;8.294;2022-07-10T10:21:37;0.90;;;0.50;;
63438;SDS011;49567;48.958;8.294;2022-07-10T10:24:03;0.32;;;0.32;;
63438;SDS011;49567;48.958;8.294;2022-07-10T10:26:29;0.75;;;0.40;;
63438;SDS011;49567;48.958;8.294;2022-07-10T10:28:56;0.70;;;0.20;;
63438;SDS011;49567;48.958;8.294;2022-07-10T10:31:23;1.10;;;0.35;;
63438;SDS011;49567;48.958;8.294;2022-07-10T10:33:51;0.40;;;0.35;;
63438;SDS011;49567;48.958;8.294;2022-07-10T10:39:19;1.67;;;0.40;;
63438;SDS011;49567;48.958;8.294;2022-07-10T10:41:46;0.93;;;0.40;;
63438;SDS011;49567;48.958;8.294;2022-07-10T10:49:16;2.05;;;0.55;;
63438;SDS011;49567;48.958;8.294;2022-07-10T10:51:56;1.83;;;0.40;;
63438;SDS011;49567;48.958;8.294;2022-07-10T10:54:35;2.45;;;0.55;;
63438;SDS011;49567;48.958;8.294;2022-07-10T10:59:57;1.15;;;0.50;;
63438;SDS011;49567;48.958;8.294;2022-07-10T11:04:52;1.00;;;0.45;;
63438;SDS011;49567;48.958;8.294;2022-07-10T11:07:52;1.40;;;0.55;;
63438;SDS011;49567;48.958;8.294;2022-07-10T11:10:26;1.05;;;0.60;;
63438;SDS011;49567;48.958;8.294;2022-07-10T11:13:10;2.35;;;0.47;;
63438;SDS011;49567;48.958;8.294;2022-07-10T11:15:43;1.42;;;0.50;;
63438;SDS011;49567;48.958;8.294;2022-07-10T11:18:15;1.50;;;0.40;;
63438;SDS011;49567;48.958;8.294;2022-07-10T11:20:43;2.50;;;0.50;;
63438;SDS011;49567;48.958;8.294;2022-07-10T11:25:41;1.00;;;0.47;;
63438;SDS011;49567;48.958;8.294;2022-07-10T11:28:15;2.33;;;0.60;;
63438;SDS011;49567;48.958;8.294;2022-07-10T11:30:49;0.45;;;0.45;;
63438;SDS011;49567;48.958;8.294;2022-07-10T11:33:15;1.50;;;0.47;;
63438;SDS011;49567;48.958;8.294;2022-07-10T11:35:45;0.55;;;0.30;;
63438;SDS011;49567;48.958;8.294;2022-07-10T11:38:11;0.50;;;0.50;;
63438;SDS011;49567;48.958;8.294;2022-07-10T11:40:37;1.80;;;0.47;;
63438;SDS011;49567;48.958;8.294;2022-07-10T11:43:03;2.63;;;0.63;;
63438;SDS011;49567;48.958;8.294;2022-07-10T11:45:34;2.30;;;1.07;;
63438;SDS011;49567;48.958;8.294;2022-07-10T11:48:03;3.77;;;0.97;;
63438;SDS011;49567;48.958;8.294;2022-07-10T11:50:34;2.85;;;1.00;;
63438;SDS011;49567;48.958;8.294;2022-07-10T11:53:01;1.40;;;1.02;;
63438;SDS011;49567;48.958;8.294;2022-07-10T11:55:26;3.23;;;1.23;;
63438;SDS011;49567;48.958;8.294;2022-07-10T11:57:51;2.23;;;1.03;;
63438;SDS011;49567;48.958;8.294;2022-07-10T12:00:21;1.67;;;0.80;;
63438;SDS011;49567;48.958;8.294;2022-07-10T12:02:51;1.17;;;0.68;;
63438;SDS011;49567;48.958;8.294;2022-07-10T12:05:36;4.22;;;1.38;;
63438;SDS011;49567;48.958;8.294;2022-07-10T12:08:03;1.08;;;0.88;;
63438;SDS011;49567;48.958;8.294;2022-07-10T12:10:29;1.08;;;0.40;;
63438;SDS011;49567;48.958;8.294;2022-07-10T12:13:29;1.03;;;0.70;;
63438;SDS011;49567;48.958;8.294;2022-07-10T12:15:48;1.00;;;0.50;;
63438;SDS011;49567;48.958;8.294;2022-07-10T12:18:17;1.10;;;0.60;;
63438;SDS011;49567;48.958;8.294;2022-07-10T12:20:44;0.90;;;0.40;;
63438;SDS011;49567;48.958;8.294;2022-07-10T12:23:12;2.30;;;0.40;;
63438;SDS011;49567;48.958;8.294;2022-07-10T12:25:45;1.40;;;0.60;;
63438;SDS011;49567;48.958;8.294;2022-07-10T12:28:13;2.50;;;0.50;;
63438;SDS011;49567;48.958;8.294;2022-07-10T12:30:39;0.83;;;0.47;;
63438;SDS011;49567;48.958;8.294;2022-07-10T12:33:07;1.80;;;0.40;;
63438;SDS011;49567;48.958;8.294;2022-07-10T12:35:51;0.60;;;0.60;;
63438;SDS011;49567;48.958;8.294;2022-07-10T12:38:23;1.30;;;0.40;;
63438;SDS011;49567;48.958;8.294;2022-07-10T12:40:50;1.48;;;0.70;;
63438;SDS011;49567;48.958;8.294;2022-07-10T12:43:29;2.10;;;0.50;;
63438;SDS011;49567;48.958;8.294;2022-07-10T12:46:08;0.80;;;0.33;;
63438;SDS011;49567;48.958;8.294;2022-07-10T12:48:35;1.25;;;0.40;;
63438;SDS011;49567;48.958;8.294;2022-07-10T12:51:20;1.85;;;0.50;;
63438;SDS011;49567;48.958;8.294;2022-07-10T12:53:46;1.25;;;0.60;;
63438;SDS011;49567;48.958;8.294;2022-07-10T12:56:25;2.00;;;0.40;;
63438;SDS011;49567;48.958;8.294;2022-07-10T12:58:59;1.60;;;0.30;;
63438;SDS011;49567;48.958;8.294;2022-07-10T13:01:28;0.90;;;0.30;;
63438;SDS011;49567;48.958;8.294;2022-07-10T13:04:04;2.10;;;0.90;;
63438;SDS011;49567;48.958;8.294;2022-07-10T13:06:33;1.70;;;0.63;;
63438;SDS011;49567;48.958;8.294;2022-07-10T13:09:01;1.67;;;0.38;;
63438;SDS011;49567;48.958;8.294;2022-07-10T13:11:26;2.17;;;0.67;;
63438;SDS011;49567;48.958;8.294;2022-07-10T13:13:52;0.57;;;0.30;;
63438;SDS011;49567;48.958;8.294;2022-07-10T13:16:17;1.30;;;0.50;;
63438;SDS011;49567;48.958;8.294;2022-07-10T13:18:43;1.50;;;0.50;;
63438;SDS011;49567;48.958;8.294;2022-07-10T13:21:09;1.00;;;0.40;;
63438;SDS011;49567;48.958;8.294;2022-07-10T13:23:36;0.70;;;0.40;;
63438;SDS011;49567;48.958;8.294;2022-07-10T13:26:02;0.90;;;0.40;;
63438;SDS011;49567;48.958;8.294;2022-07-10T13:28:28;0.65;;;0.30;;
63438;SDS011;49567;48.958;8.294;2022-07-10T13:30:54;0.90;;;0.50;;
63438;SDS011;49567;48.958;8.294;2022-07-10T13:33:20;0.50;;;0.40;;
63438;SDS011;49567;48.958;8.294;2022-07-10T13:35:45;1.63;;;0.70;;
63438;SDS011;49567;48.958;8.294;2022-07-10T13:38:11;0.70;;;0.50;;
63438;SDS011;49567;48.958;8.294;2022-07-10T13:40:36;2.93;;;0.40;;
63438;SDS011;49567;48.958;8.294;2022-07-10T13:43:02;1.38;;;0.40;;
63438;SDS011;49567;48.958;8.294;2022-07-10T13:45:28;1.07;;;0.40;;
63438;SDS011;49567;48.958;8.294;2022-07-10T13:47:58;1.73;;;0.70;;
63438;SDS011;49567;48.958;8.294;2022-07-10T13:50:24;1.63;;;0.40;;
63438;SDS011;49567;48.958;8.294;2022-07-10T13:52:50;1.35;;;0.90;;
63438;SDS011;49567;48.958;8.294;2022-07-10T13:55:15;1.00;;;0.50;;
63438;SDS011;49567;48.958;8.294;2022-07-10T13:57:41;0.70;;;0.50;;
63438;SDS011;49567;48.958;8.294;2022-07-10T14:00:06;1.10;;;0.43;;
63438;SDS011;49567;48.958;8.294;2022-07-10T14:02:32;1.38;;;0.60;;
63438;SDS011;49567;48.958;8.294;2022-07-10T14:04:58;1.25;;;0.50;;
63438;SDS011;49567;48.958;8.294;2022-07-10T14:07:23;0.90;;;0.30;;
63438;SDS011;49567;48.958;8.294;2022-07-10T14:09:49;2.20;;;0.50;;
63438;SDS011;49567;48.958;8.294;2022-07-10T14:12:14;0.63;;;0.47;;
63438;SDS011;49567;48.958;8.294;2022-07-10T14:14:40;1.57;;;0.47;;
63438;SDS011;49567;48.958;8.294;2022-07-10T14:17:06;1.30;;;0.40;;
63438;SDS011;49567;48.958;8.294;2022-07-10T14:19:31;0.68;;;0.40;;
63438;SDS011;49567;48.958;8.294;2022-07-10T14:21:57;2.57;;;0.60;;
63438;SDS011;49567;48.958;8.294;2022-07-10T14:24:22;1.75;;;0.50;;
63438;SDS011;49567;48.958;8.294;2022-07-10T14:26:48;0.90;;;0.40;;
63438;SDS011;49567;48.958;8.294;2022-07-10T14:29:13;2.90;;;0.65;;
63438;SDS011;49567;48.958;8.294;2022-07-10T14:31:38;1.40;;;0.40;;
63438;SDS011;49567;48.958;8.294;2022-07-10T14:34:04;0.97;;;0.50;;
63438;SDS011;49567;48.958;8.294;2022-07-10T14:36:30;2.20;;;0.60;;
63438;SDS011;49567;48.958;8.294;2022-07-10T14:38:56;0.95;;;0.50;;
63438;SDS011;49567;48.958;8.294;2022-07-10T14:41:22;2.13;;;0.60;;
63438;SDS011;49567;48.958;8.294;2022-07-10T14:43:49;2.15;;;0.57;;
63438;SDS011;49567;48.958;8.294;2022-07-10T14:46:15;1.50;;;0.50;;
63438;SDS011;49567;48.958;8.294;2022-07-10T14:48:40;0.43;;;0.23;;
63438;SDS011;49567;48.958;8.294;2022-07-10T14:51:05;1.97;;;0.73;;
63438;SDS011;49567;48.958;8.294;2022-07-10T14:53:32;0.82;;;0.55;;
63438;SDS011;49567;48.958;8.294;2022-07-10T14:56:00;2.83;;;0.60;;
63438;SDS011;49567;48.958;8.294;2022-07-10T14:58:30;1.05;;;0.40;;
63438;SDS011;49567;48.958;8.294;2022-07-10T15:00:55;0.67;;;0.40;;
63438;SDS011;49567;48.958;8.294;2022-07-10T15:03:21;0.40;;;0.40;;
63438;SDS011;49567;48.958;8.294;2022-07-10T15:05:46;1.07;;;0.50;;
63438;SDS011;49567;48.958;8.294;2022-07-10T15:08:11;6.13;;;0.70;;